Coastal Guardian — MQJT3 — position and weather

sailwx.info

Track history (hours):
 
Tides and Currents Weather Stations Pressure Air Temp Water Temp Dewpoint Dewpoint Depression Visibility Wind Speed Wind Dir Waves Ship Positions

Oceanographic research ship Coastal Guardian (UK)

Detailed information on ship capabilities available from University of Delaware's Ocean Information Center.

Last reported at 2017-Nov-08 23:33 UTC. Time now 2017-Dec-12 23:50 UTC.
Position N 50°22' W 004°10'.
Warning: this ship's position is 34 days out of date.

Length 16 m.

Type: Other ship. MMSI: 235087897.

Date/timePositionNaut miles runAvg speedWind from/ knotsBaromVisibWave heightAir tempDewpointWater temp
2017-Nov-08 23:33N 50°22' W 004°10'0 0.0
2017-Nov-08 23:30N 50°22' W 004°10'1 2.8
2017-Nov-08 23:00N 50°21' W 004°08'3 5.6
2017-Nov-08 22:29N 50°18' W 004°08'19 4.7
2017-Nov-08 18:26N 50°12' W 003°39'2 5.2
2017-Nov-08 17:59N 50°13' W 003°36'3 7.1
2017-Nov-08 17:30N 50°14' W 003°31'4 7.6
2017-Nov-08 17:00N 50°16' W 003°26'4 7.7
2017-Nov-08 16:30N 50°17' W 003°20'4 7.8
2017-Nov-08 16:01N 50°19' W 003°15'4 7.7
2017-Nov-08 15:31N 50°21' W 003°09'4 7.4
2017-Nov-08 15:00N 50°22' W 003°04'4 7.1
2017-Nov-08 14:29N 50°24' W 002°58'3 6.8
2017-Nov-08 13:59N 50°25' W 002°53'3 6.4
2017-Nov-08 13:30N 50°26' W 002°49'  
Track history (hours):
 
Tides and Currents Weather Stations Pressure Air Temp Water Temp Dewpoint Dewpoint Depression Visibility Wind Speed Wind Dir Waves Ship Positions

Oceanographic research ship Coastal Guardian (UK)

Detailed information on ship capabilities available from University of Delaware's Ocean Information Center.

Last reported at 2017-Nov-08 23:33 UTC. Time now 2017-Dec-12 23:50 UTC.
Position N 50°22' W 004°10'.
Warning: this ship's position is 34 days out of date.

Length 16 m.

Type: Other ship. MMSI: 235087897.

Date/timePositionNaut miles runAvg speedWind from/ knotsBaromVisibWave heightAir tempDewpointWater temp
2017-Nov-08 23:33N 50°22' W 004°10'0 0.0
2017-Nov-08 23:30N 50°22' W 004°10'1 2.8
2017-Nov-08 23:00N 50°21' W 004°08'3 5.6
2017-Nov-08 22:29N 50°18' W 004°08'19 4.7
2017-Nov-08 18:26N 50°12' W 003°39'2 5.2
2017-Nov-08 17:59N 50°13' W 003°36'3 7.1
2017-Nov-08 17:30N 50°14' W 003°31'4 7.6
2017-Nov-08 17:00N 50°16' W 003°26'4 7.7
2017-Nov-08 16:30N 50°17' W 003°20'4 7.8
2017-Nov-08 16:01N 50°19' W 003°15'4 7.7
2017-Nov-08 15:31N 50°21' W 003°09'4 7.4
2017-Nov-08 15:00N 50°22' W 003°04'4 7.1
2017-Nov-08 14:29N 50°24' W 002°58'3 6.8
2017-Nov-08 13:59N 50°25' W 002°53'3 6.4
2017-Nov-08 13:30N 50°26' W 002°49'  

Dump ship's entire track history